createdAt,value
2023-01-11T00:01:11.110Z,5.10
2023-01-11T00:07:34.841Z,5.00
2023-01-11T00:10:09.380Z,5.20
2023-01-11T00:12:53.633Z,5.10
2023-01-11T00:15:25.108Z,5.10
2023-01-11T00:17:52.655Z,5.10
2023-01-11T00:20:20.186Z,5.20
2023-01-11T00:22:59.913Z,5.20
2023-01-11T00:25:31.632Z,5.30
2023-01-11T00:32:49.931Z,5.40
2023-01-11T00:35:17.213Z,5.20
2023-01-11T00:37:44.941Z,5.20
2023-01-11T00:40:13.970Z,5.30
2023-01-11T00:43:03.074Z,5.20
2023-01-11T00:45:48.813Z,5.20
2023-01-11T00:48:16.934Z,5.10
2023-01-11T00:50:44.520Z,5.20
2023-01-11T00:53:11.812Z,5.30
2023-01-11T00:55:40.029Z,5.20
2023-01-11T01:05:56.125Z,5.30
2023-01-11T01:08:24.831Z,5.20
2023-01-11T01:10:53.226Z,5.10
2023-01-11T01:13:38.513Z,5.10
2023-01-11T01:16:06.572Z,5.30
2023-01-11T01:18:33.801Z,5.20
2023-01-11T01:21:01.820Z,5.20
2023-01-11T01:23:29.670Z,5.30
2023-01-11T01:25:57.001Z,5.40
2023-01-11T01:33:29.480Z,5.40
2023-01-11T01:35:57.276Z,5.50
2023-01-11T01:38:24.539Z,5.70
2023-01-11T01:40:52.393Z,5.70
2023-01-11T01:43:19.936Z,5.60
2023-01-11T01:45:49.410Z,5.60
2023-01-11T01:48:22.579Z,5.50
2023-01-11T01:50:53.661Z,5.60
2023-01-11T01:58:31.460Z,5.90
2023-01-11T02:01:19.612Z,5.70
2023-01-11T02:03:48.089Z,5.70
2023-01-11T02:06:16.476Z,5.80
2023-01-11T02:08:48.270Z,6.00
2023-01-11T02:11:41.362Z,6.00
2023-01-11T02:14:16.453Z,5.90
2023-01-11T02:24:58.934Z,5.80
2023-01-11T02:27:44.907Z,5.80
2023-01-11T02:30:20.981Z,5.80
2023-01-11T02:32:58.343Z,5.80
2023-01-11T02:35:32.441Z,5.80
2023-01-11T02:38:07.992Z,5.90
2023-01-11T02:40:43.392Z,5.90
2023-01-11T02:43:34.716Z,6.00
2023-01-11T02:51:13.639Z,6.20
2023-01-11T02:53:46.830Z,6.20
2023-01-11T02:56:19.415Z,6.20
2023-01-11T02:58:50.283Z,6.30
2023-01-11T03:01:23.047Z,6.20
2023-01-11T03:03:50.786Z,6.30
2023-01-11T03:06:22.274Z,6.20
2023-01-11T03:14:27.229Z,6.30
2023-01-11T03:17:05.562Z,6.20
2023-01-11T03:19:39.011Z,6.20
2023-01-11T03:22:10.413Z,6.40
2023-01-11T03:24:44.387Z,6.40
2023-01-11T03:27:23.601Z,6.50
2023-01-11T03:30:00.674Z,6.40
2023-01-11T03:37:50.159Z,6.50
2023-01-11T03:40:25.821Z,6.50
2023-01-11T03:43:13.933Z,6.70
2023-01-11T03:45:46.899Z,6.60
2023-01-11T03:48:18.370Z,6.50
2023-01-11T03:50:49.484Z,6.60
2023-01-11T03:53:20.614Z,6.70
2023-01-11T03:55:54.801Z,6.80
2023-01-11T04:03:31.910Z,6.70
2023-01-11T04:06:01.904Z,6.70
2023-01-11T04:08:37.418Z,6.80
2023-01-11T04:11:05.763Z,6.90
2023-01-11T04:13:57.057Z,6.90
2023-01-11T04:16:29.964Z,6.80
2023-01-11T04:18:59.035Z,6.90
2023-01-11T04:28:10.113Z,7.10
2023-01-11T04:30:37.429Z,7.30
2023-01-11T04:33:05.414Z,7.50
2023-01-11T04:35:35.205Z,7.40
2023-01-11T04:38:03.232Z,7.60
2023-01-11T04:40:30.750Z,7.70
2023-01-11T04:43:01.679Z,7.70
2023-01-11T04:45:31.627Z,7.60
2023-01-11T04:53:06.856Z,7.70
2023-01-11T04:56:00.103Z,7.80
2023-01-11T04:58:29.283Z,7.70
2023-01-11T05:00:56.686Z,7.70
2023-01-11T05:03:24.612Z,7.90
2023-01-11T05:05:58.970Z,7.90
2023-01-11T05:08:29.111Z,8.00
2023-01-11T05:17:38.304Z,7.90
2023-01-11T05:20:06.815Z,8.10
2023-01-11T05:22:34.232Z,8.30
2023-01-11T05:25:01.600Z,8.00
2023-01-11T05:27:29.219Z,8.20
2023-01-11T05:29:56.638Z,8.40
2023-01-11T05:32:24.139Z,8.50
2023-01-11T05:34:53.253Z,8.60
2023-01-11T05:42:28.191Z,8.50
2023-01-11T05:45:19.433Z,8.30
2023-01-11T05:47:50.753Z,8.30
2023-01-11T05:50:18.375Z,8.30
2023-01-11T05:52:45.860Z,8.70
2023-01-11T05:55:13.315Z,8.80
2023-01-11T05:57:43.259Z,8.50
2023-01-11T06:03:30.009Z,8.40
2023-01-11T06:05:59.931Z,8.40
2023-01-11T06:08:27.729Z,8.50
2023-01-11T06:10:56.557Z,8.60
2023-01-11T06:13:31.721Z,8.50
2023-01-11T06:16:01.948Z,8.40
2023-01-11T06:18:33.523Z,8.60
2023-01-11T06:26:39.933Z,8.80
2023-01-11T06:29:07.198Z,8.80
2023-01-11T06:31:41.020Z,8.90
2023-01-11T06:34:13.202Z,8.90
2023-01-11T06:36:46.290Z,8.90
2023-01-11T06:39:18.733Z,8.90
2023-01-11T06:41:47.034Z,8.90
2023-01-11T06:44:14.659Z,9.10
2023-01-11T06:54:23.741Z,9.30
2023-01-11T06:56:53.972Z,9.00
2023-01-11T06:59:21.650Z,8.90
2023-01-11T07:01:49.027Z,8.70
2023-01-11T07:04:18.170Z,8.60
2023-01-11T07:06:46.111Z,8.70
2023-01-11T07:09:14.792Z,8.80
2023-01-11T07:11:42.221Z,8.70
2023-01-11T07:19:28.863Z,8.90
2023-01-11T07:21:56.273Z,9.10
2023-01-11T07:24:25.650Z,9.00
2023-01-11T07:26:55.430Z,8.80
2023-01-11T07:29:23.249Z,9.00
2023-01-11T07:31:51.361Z,8.90
2023-01-11T07:34:24.693Z,8.90
2023-01-11T07:36:51.767Z,8.90
2023-01-11T07:44:25.645Z,9.00
2023-01-11T07:46:53.795Z,9.10
2023-01-11T07:49:21.702Z,8.90
2023-01-11T07:51:51.503Z,9.00
2023-01-11T07:54:19.471Z,9.00
2023-01-11T07:56:47.347Z,9.10
2023-01-11T07:59:14.912Z,9.30
2023-01-11T08:02:11.007Z,9.20
2023-01-11T08:09:41.236Z,9.50
2023-01-11T08:12:26.571Z,9.30
2023-01-11T08:14:55.557Z,9.10
2023-01-11T08:17:22.723Z,9.10
2023-01-11T08:19:50.526Z,9.10
2023-01-11T08:22:18.732Z,9.10
2023-01-11T08:24:47.091Z,9.00
2023-01-11T08:27:17.336Z,9.20
2023-01-11T08:29:44.544Z,9.20
2023-01-11T08:37:18.726Z,9.20
2023-01-11T08:39:46.154Z,9.20
2023-01-11T08:42:14.216Z,9.50
2023-01-11T08:44:41.456Z,9.40
2023-01-11T08:47:10.006Z,9.30
2023-01-11T08:49:37.380Z,9.00
2023-01-11T08:52:05.344Z,9.10
2023-01-11T09:07:38.541Z,8.90
2023-01-11T09:10:07.538Z,9.00
2023-01-11T09:12:35.711Z,9.10
2023-01-11T09:15:05.364Z,9.40
2023-01-11T09:17:33.681Z,9.40
2023-01-11T09:20:00.933Z,9.40
2023-01-11T09:22:29.729Z,9.20
2023-01-11T09:25:00.313Z,9.20
2023-01-11T09:34:57.534Z,9.40
2023-01-11T09:37:25.810Z,9.10
2023-01-11T09:39:53.049Z,9.30
2023-01-11T09:42:36.987Z,9.30
2023-01-11T09:45:11.815Z,9.60
2023-01-11T09:47:42.695Z,9.60
2023-01-11T09:50:18.146Z,9.50
2023-01-11T09:52:51.314Z,9.70
2023-01-11T10:00:31.742Z,9.90
2023-01-11T10:03:34.075Z,9.80
2023-01-11T10:06:10.563Z,9.80
2023-01-11T10:18:27.729Z,9.80
2023-01-11T10:25:18.121Z,9.80
2023-01-11T10:27:57.114Z,9.70
2023-01-11T10:30:44.943Z,9.90
2023-01-11T10:33:29.389Z,10.20
2023-01-11T10:36:10.079Z,10.40
2023-01-11T10:38:57.166Z,10.30
2023-01-11T10:41:38.331Z,10.20
2023-01-11T10:44:18.463Z,9.80
2023-01-11T10:54:38.556Z,9.30
2023-01-11T10:57:19.748Z,8.80
2023-01-11T11:00:17.920Z,8.90
2023-01-11T11:03:06.894Z,9.00
2023-01-11T11:05:43.411Z,9.10
2023-01-11T11:08:16.174Z,9.10
2023-01-11T11:10:54.944Z,9.20
2023-01-11T11:13:32.405Z,9.50
2023-01-11T11:18:44.667Z,9.50
2023-01-11T11:21:24.695Z,9.50
2023-01-11T11:24:00.896Z,9.70
2023-01-11T11:26:36.873Z,9.80
2023-01-11T11:29:06.431Z,9.90
2023-01-11T11:31:36.733Z,10.10
2023-01-11T11:34:16.274Z,10.30
2023-01-11T11:44:42.097Z,10.80
2023-01-11T11:47:17.416Z,10.80
2023-01-11T11:49:47.576Z,10.90
2023-01-11T11:52:18.302Z,11.00
2023-01-11T11:54:52.701Z,11.00
2023-01-11T11:57:24.629Z,10.90
2023-01-11T12:00:21.065Z,11.00
2023-01-11T12:02:53.547Z,11.00
2023-01-11T12:11:01.599Z,10.90
2023-01-11T12:13:32.307Z,10.40
2023-01-11T12:16:02.484Z,10.60
2023-01-11T12:18:33.570Z,10.60
2023-01-11T12:21:19.590Z,10.40
2023-01-11T12:23:47.560Z,10.40
2023-01-11T12:26:28.158Z,10.50
2023-01-11T12:32:09.313Z,10.60
2023-01-11T12:34:55.015Z,10.30
2023-01-11T12:37:34.092Z,10.10
2023-01-11T12:40:14.436Z,9.90
2023-01-11T12:42:57.995Z,9.90
2023-01-11T12:45:41.398Z,9.60
2023-01-11T12:48:26.054Z,9.50
2023-01-11T12:56:19.492Z,9.40
2023-01-11T12:59:01.843Z,9.30
2023-01-11T13:01:41.995Z,9.20
2023-01-11T13:04:44.723Z,9.20
2023-01-11T13:07:23.741Z,9.10
2023-01-11T13:10:04.367Z,8.90
2023-01-11T13:21:01.360Z,9.10
2023-01-11T13:23:38.608Z,9.20
2023-01-11T13:26:16.980Z,9.00
2023-01-11T13:28:46.761Z,8.80
2023-01-11T13:31:17.311Z,9.00
2023-01-11T13:33:52.295Z,9.00
2023-01-11T13:36:28.034Z,9.20
2023-01-11T13:39:00.947Z,8.90
2023-01-11T13:46:56.088Z,8.70
2023-01-11T13:49:42.329Z,8.60
2023-01-11T13:52:13.807Z,8.60
2023-01-11T13:54:54.468Z,8.60
2023-01-11T13:57:30.862Z,8.70
2023-01-11T14:00:05.180Z,8.60
2023-01-11T14:02:40.610Z,8.70
2023-01-11T14:05:15.403Z,8.60
2023-01-11T14:14:01.992Z,8.50
2023-01-11T14:16:39.962Z,8.50
2023-01-11T14:19:19.609Z,8.60
2023-01-11T14:21:58.705Z,8.50
2023-01-11T14:24:27.903Z,8.70
2023-01-11T14:27:24.253Z,8.70
2023-01-11T14:30:11.442Z,8.50
2023-01-11T14:38:58.997Z,8.30
2023-01-11T14:42:06.475Z,8.50
2023-01-11T14:45:09.490Z,8.40
2023-01-11T14:48:01.601Z,8.50
2023-01-11T14:50:40.725Z,8.40
2023-01-11T14:53:14.209Z,8.20
2023-01-11T14:56:17.828Z,8.20
2023-01-11T14:59:11.932Z,8.10
2023-01-11T15:04:35.345Z,7.90
2023-01-11T15:07:23.890Z,8.10
2023-01-11T15:09:54.220Z,8.10
2023-01-11T15:12:23.960Z,7.90
2023-01-11T15:14:57.905Z,7.90
2023-01-11T15:17:44.861Z,8.00
2023-01-11T15:20:16.498Z,8.00
2023-01-11T15:22:45.521Z,8.00
2023-01-11T15:30:37.938Z,8.00
2023-01-11T15:33:44.497Z,8.10
2023-01-11T15:36:12.332Z,8.20
2023-01-11T15:38:48.810Z,8.20
2023-01-11T15:41:37.128Z,8.20
2023-01-11T15:44:22.121Z,8.30
2023-01-11T15:56:14.073Z,7.80
2023-01-11T15:59:19.300Z,7.80
2023-01-11T16:02:39.172Z,7.80
2023-01-11T16:05:17.386Z,7.80
2023-01-11T16:07:53.684Z,7.70
2023-01-11T16:10:53.090Z,7.60
2023-01-11T16:13:44.276Z,7.80
2023-01-11T16:16:20.277Z,7.80
2023-01-11T16:24:04.190Z,7.80
2023-01-11T16:26:35.584Z,8.00
2023-01-11T16:29:15.889Z,8.30
2023-01-11T16:31:56.924Z,8.40
2023-01-11T16:34:29.252Z,8.00
2023-01-11T16:36:59.561Z,8.40
2023-01-11T16:39:33.793Z,8.20
2023-01-11T16:42:09.152Z,8.20
2023-01-11T16:49:43.163Z,7.90
2023-01-11T16:52:46.834Z,7.90
2023-01-11T16:55:29.575Z,7.90
2023-01-11T16:58:04.587Z,8.10
2023-01-11T17:00:37.523Z,8.20
2023-01-11T17:03:24.136Z,8.40
2023-01-11T17:06:02.168Z,8.60
2023-01-11T17:08:40.124Z,8.30
2023-01-11T17:16:41.374Z,8.20
2023-01-11T17:19:17.690Z,8.00
2023-01-11T17:21:51.554Z,8.00
2023-01-11T17:24:25.765Z,7.90
2023-01-11T17:27:12.049Z,8.10
2023-01-11T17:29:42.970Z,8.00
2023-01-11T17:32:20.526Z,8.20
2023-01-11T17:39:52.856Z,8.30
2023-01-11T17:42:42.481Z,8.30
2023-01-11T17:45:22.682Z,8.40
2023-01-11T17:47:55.331Z,8.20
2023-01-11T17:50:30.052Z,8.20
2023-01-11T17:53:05.581Z,8.30
2023-01-11T17:55:35.355Z,8.50
2023-01-11T18:03:18.466Z,8.60
2023-01-11T18:05:50.482Z,8.50
2023-01-11T18:08:26.061Z,8.50
2023-01-11T18:10:55.816Z,8.60
2023-01-11T18:13:33.535Z,8.70
2023-01-11T18:16:08.095Z,8.80
2023-01-11T18:18:42.922Z,8.80
2023-01-11T18:21:42.194Z,8.60
2023-01-11T18:29:55.017Z,8.70
2023-01-11T18:32:24.274Z,8.60
2023-01-11T18:34:56.312Z,8.70
2023-01-11T18:37:26.180Z,8.70
2023-01-11T18:39:58.735Z,8.60
2023-01-11T18:42:34.189Z,8.40
2023-01-11T18:45:06.706Z,8.20
2023-01-11T18:55:37.344Z,8.20
2023-01-11T18:58:07.694Z,8.40
2023-01-11T19:00:36.102Z,8.40
2023-01-11T19:03:05.581Z,8.40
2023-01-11T19:05:37.203Z,8.40
2023-01-11T19:08:07.373Z,8.30
2023-01-11T19:10:38.779Z,8.20
2023-01-11T19:13:07.893Z,8.20
2023-01-11T19:20:51.574Z,7.50
2023-01-11T19:26:13.034Z,7.80
2023-01-11T19:28:49.572Z,7.60
2023-01-11T19:31:28.143Z,7.60
2023-01-11T19:34:02.893Z,7.40
2023-01-11T19:36:40.643Z,7.60
2023-01-11T19:39:11.152Z,7.80
2023-01-11T19:46:46.829Z,7.60
2023-01-11T19:49:19.615Z,7.70
2023-01-11T19:51:50.637Z,8.10
2023-01-11T19:54:29.001Z,8.20
2023-01-11T19:57:00.410Z,8.10
2023-01-11T19:59:34.853Z,8.40
2023-01-11T20:02:08.732Z,8.40
2023-01-11T20:09:54.333Z,8.40
2023-01-11T20:12:27.334Z,8.30
2023-01-11T20:15:01.494Z,8.40
2023-01-11T20:17:32.354Z,8.10
2023-01-11T20:20:04.930Z,8.10
2023-01-11T20:22:42.433Z,8.10
2023-01-11T20:25:18.289Z,7.80
2023-01-11T20:27:46.482Z,7.90
2023-01-11T20:35:24.381Z,8.00
2023-01-11T20:37:58.727Z,7.80
2023-01-11T20:40:26.923Z,7.90
2023-01-11T20:42:58.932Z,7.90
2023-01-11T20:45:30.763Z,7.70
2023-01-11T20:48:01.772Z,7.60
2023-01-11T20:50:41.895Z,7.40
2023-01-11T20:53:16.291Z,7.40
2023-01-11T21:00:54.034Z,7.20
2023-01-11T21:03:26.697Z,7.30
2023-01-11T21:05:56.361Z,7.50
2023-01-11T21:08:24.632Z,7.40
2023-01-11T21:10:52.795Z,7.30
2023-01-11T21:13:26.898Z,7.30
2023-01-11T21:16:08.046Z,7.60
2023-01-11T21:25:53.173Z,7.60
2023-01-11T21:28:23.485Z,7.40
2023-01-11T21:30:52.081Z,7.70
2023-01-11T21:33:21.842Z,7.90
2023-01-11T21:35:49.183Z,7.70
2023-01-11T21:38:16.710Z,7.40
2023-01-11T21:40:44.555Z,7.50
2023-01-11T21:43:14.433Z,7.60
2023-01-11T21:50:50.111Z,7.20
2023-01-11T21:53:18.795Z,7.40
2023-01-11T21:55:47.026Z,7.60
2023-01-11T21:58:15.093Z,7.80
2023-01-11T22:00:43.231Z,7.80
2023-01-11T22:03:11.732Z,7.70
2023-01-11T22:05:39.745Z,7.50
2023-01-11T22:13:59.651Z,7.30
2023-01-11T22:16:31.979Z,7.60
2023-01-11T22:19:00.936Z,7.50
2023-01-11T22:21:28.924Z,7.70
2023-01-11T22:23:58.188Z,7.80
2023-01-11T22:26:26.821Z,7.90
2023-01-11T22:29:29.809Z,8.10
2023-01-11T22:37:14.235Z,8.00
2023-01-11T22:39:41.455Z,7.90
2023-01-11T22:42:09.327Z,7.60
2023-01-11T22:44:39.202Z,7.60
2023-01-11T22:47:07.311Z,7.70
2023-01-11T22:49:35.272Z,7.90
2023-01-11T22:52:06.073Z,8.00
2023-01-11T23:02:34.608Z,7.70
2023-01-11T23:05:02.752Z,7.70
2023-01-11T23:07:37.473Z,7.60
2023-01-11T23:10:08.014Z,7.60
2023-01-11T23:12:53.085Z,7.70
2023-01-11T23:15:20.770Z,7.60
2023-01-11T23:17:52.622Z,7.70
2023-01-11T23:25:26.486Z,7.90
2023-01-11T23:27:55.283Z,7.80
2023-01-11T23:30:23.860Z,7.40
2023-01-11T23:32:51.513Z,7.60
2023-01-11T23:35:19.035Z,7.80
2023-01-11T23:37:46.350Z,7.70
2023-01-11T23:40:13.785Z,7.70
2023-01-11T23:42:41.460Z,7.80
2023-01-11T23:50:14.962Z,8.00
2023-01-11T23:52:42.575Z,7.90
2023-01-11T23:55:13.395Z,8.00
2023-01-11T23:58:01.607Z,8.00
